Ponca, Arkansas
Current Conditions -  °F | °C
As of 11:53 PM on Saturday 22 Nov 2014 (Local Time) from KHRO Reporting Station
Overcast Overcast  
Wind Chill: 54°   Ceiling: 1700
Heat Index: 54°   Visibility: 10mi
Dew Point: 52°   Wind: 14mph
Humidity: 93%   Direction: 140°SE
Pressure: 29.79"   Gusts: NA
Location:  36.02°N, 93.37°W
Report Text: KHRO 230553Z AUTO 14012KT 10SM OVC017 12/11 A2979 RMK AO2 SLP083 T01220111 10122 20106 401280067 56039
Loading
Personal Weather Stations






























Interactive Weather Map New forecast layout! Learn more

10-Day Weather Forecast

Advertisements
Track Severe Weather on mobile